createdAt,value
2022-11-29T00:01:59.778Z,101408.24
2022-11-29T00:04:54.190Z,101406.90
2022-11-29T00:07:48.627Z,101406.64
2022-11-29T00:10:43.036Z,101405.44
2022-11-29T00:13:37.559Z,101402.83
2022-11-29T00:16:32.060Z,101405.52
2022-11-29T00:19:26.977Z,101403.06
2022-11-29T00:22:23.098Z,101404.71
2022-11-29T00:25:15.873Z,101405.11
2022-11-29T00:28:10.365Z,101404.00
2022-11-29T00:31:15.006Z,101404.58
2022-11-29T00:34:09.528Z,101407.10
2022-11-29T00:37:03.891Z,101408.20
2022-11-29T00:39:58.398Z,101402.94
2022-11-29T00:42:52.903Z,101399.06
2022-11-29T00:45:47.487Z,101400.17
2022-11-29T00:48:42.148Z,101400.18
2022-11-29T00:51:36.846Z,101400.90
2022-11-29T00:54:31.953Z,101405.20
2022-11-29T00:57:26.348Z,101405.90
2022-11-29T01:00:22.612Z,101400.84
2022-11-29T01:03:17.144Z,101399.29
2022-11-29T01:06:13.240Z,101403.17
2022-11-29T01:09:06.495Z,101405.52
2022-11-29T01:12:01.029Z,101402.41
2022-11-29T01:14:55.391Z,101402.98
2022-11-29T01:17:50.479Z,101401.75
2022-11-29T01:20:44.837Z,101402.65
2022-11-29T01:23:40.652Z,101398.65
2022-11-29T01:26:35.201Z,101393.88
2022-11-29T01:29:29.601Z,101388.21
2022-11-29T01:32:24.000Z,101388.58
2022-11-29T01:35:18.562Z,101388.27
2022-11-29T01:38:12.908Z,101389.21
2022-11-29T01:41:09.859Z,101389.17
2022-11-29T01:44:06.976Z,101386.58
2022-11-29T01:47:01.365Z,101384.42
2022-11-29T01:49:55.740Z,101386.98
2022-11-29T01:52:50.446Z,101387.67
2022-11-29T01:55:49.116Z,101385.72
2022-11-29T01:58:44.483Z,101386.81
2022-11-29T02:01:39.694Z,101385.48
2022-11-29T02:04:35.071Z,101383.95
2022-11-29T02:07:29.505Z,101388.48
2022-11-29T02:10:25.079Z,101385.70
2022-11-29T02:13:25.104Z,101385.16
2022-11-29T02:16:23.410Z,101382.66
2022-11-29T02:19:56.195Z,101385.52
2022-11-29T02:22:53.795Z,101388.58
2022-11-29T02:26:02.340Z,101388.19
2022-11-29T02:29:35.658Z,101387.29
2022-11-29T02:33:13.915Z,101393.00
2022-11-29T02:36:33.955Z,101393.70
2022-11-29T02:39:56.157Z,101401.84
2022-11-29T02:43:23.323Z,101398.48
2022-11-29T02:46:27.578Z,101403.27
2022-11-29T02:49:31.898Z,101403.96
2022-11-29T02:52:31.405Z,101401.31
2022-11-29T02:55:31.569Z,101400.41
2022-11-29T02:58:29.078Z,101406.62
2022-11-29T03:01:27.250Z,101408.02
2022-11-29T03:04:27.292Z,101413.02
2022-11-29T03:07:28.640Z,101415.42
2022-11-29T03:10:30.398Z,101417.98
2022-11-29T03:13:34.823Z,101411.85
2022-11-29T03:16:42.821Z,101416.50
2022-11-29T03:20:03.135Z,101423.27
2022-11-29T03:23:14.915Z,101425.09
2022-11-29T03:26:12.015Z,101425.48
2022-11-29T03:29:11.009Z,101423.36
2022-11-29T03:32:08.597Z,101422.10
2022-11-29T03:35:11.518Z,101422.52
2022-11-29T03:38:14.353Z,101424.10
2022-11-29T03:41:21.453Z,101427.39
2022-11-29T03:44:17.252Z,101428.41
2022-11-29T03:47:13.775Z,101428.65
2022-11-29T03:50:12.670Z,101431.80
2022-11-29T03:53:16.036Z,101427.95
2022-11-29T03:56:30.260Z,101432.04
2022-11-29T03:59:42.451Z,101430.98
2022-11-29T04:03:04.026Z,101431.16
2022-11-29T04:06:21.853Z,101434.94
2022-11-29T04:09:39.855Z,101439.39
2022-11-29T04:12:53.903Z,101437.95
2022-11-29T04:16:20.699Z,101435.92
2022-11-29T04:19:41.679Z,101440.31
2022-11-29T04:22:59.071Z,101444.10
2022-11-29T04:26:38.479Z,101443.90
2022-11-29T04:29:53.202Z,101441.67
2022-11-29T04:33:34.332Z,101441.75
2022-11-29T04:36:54.451Z,101446.69
2022-11-29T04:40:01.360Z,101450.67
2022-11-29T04:43:12.509Z,101450.55
2022-11-29T04:46:33.693Z,101447.75
2022-11-29T04:49:56.758Z,101456.53
2022-11-29T04:53:29.297Z,101453.69
2022-11-29T04:56:32.521Z,101454.48
2022-11-29T04:59:31.054Z,101462.78
2022-11-29T05:02:33.761Z,101466.42
2022-11-29T05:05:36.841Z,101469.45
2022-11-29T05:08:37.297Z,101470.34
2022-11-29T05:11:42.908Z,101472.44
2022-11-29T05:14:46.501Z,101471.96
2022-11-29T05:17:48.833Z,101480.02
2022-11-29T05:20:48.302Z,101478.28
2022-11-29T05:23:54.570Z,101484.93
2022-11-29T05:26:55.166Z,101477.81
2022-11-29T05:29:55.910Z,101480.72
2022-11-29T05:32:58.691Z,101480.73
2022-11-29T05:35:59.380Z,101480.94
2022-11-29T05:39:07.846Z,101485.55
2022-11-29T05:42:13.946Z,101488.13
2022-11-29T05:45:14.131Z,101493.30
2022-11-29T05:48:10.693Z,101494.96
2022-11-29T05:51:15.913Z,101496.58
2022-11-29T05:54:18.346Z,101503.89
2022-11-29T05:57:18.958Z,101506.86
2022-11-29T06:00:17.007Z,101509.95
2022-11-29T06:03:17.185Z,101513.99
2022-11-29T06:06:16.859Z,101514.59
2022-11-29T06:09:16.330Z,101514.78
2022-11-29T06:12:18.152Z,101521.98
2022-11-29T06:15:35.721Z,101523.04
2022-11-29T06:18:53.045Z,101527.05
2022-11-29T06:21:51.177Z,101526.86
2022-11-29T06:25:01.630Z,101527.52
2022-11-29T06:28:14.169Z,101534.79
2022-11-29T06:31:13.309Z,101536.66
2022-11-29T06:34:13.297Z,101536.83
2022-11-29T06:37:14.016Z,101537.84
2022-11-29T06:40:13.162Z,101542.94
2022-11-29T06:43:08.614Z,101539.09
2022-11-29T06:46:07.719Z,101543.34
2022-11-29T06:49:09.510Z,101542.11
2022-11-29T06:52:19.037Z,101545.33
2022-11-29T06:55:19.098Z,101544.46
2022-11-29T06:58:21.350Z,101548.39
2022-11-29T07:01:23.961Z,101549.52
2022-11-29T07:04:48.959Z,101555.73
2022-11-29T07:07:44.755Z,101556.89
2022-11-29T07:10:42.019Z,101561.34
2022-11-29T07:13:37.850Z,101560.11
2022-11-29T07:16:34.845Z,101560.67
2022-11-29T07:19:36.965Z,101563.54
2022-11-29T07:22:47.033Z,101565.16
2022-11-29T07:25:48.991Z,101565.55
2022-11-29T07:28:52.084Z,101568.23
2022-11-29T07:31:54.412Z,101585.09
2022-11-29T07:34:56.316Z,101567.72
2022-11-29T07:38:02.928Z,101567.91
2022-11-29T07:41:01.966Z,101568.90
2022-11-29T07:44:03.584Z,101569.23
2022-11-29T07:46:58.018Z,101573.27
2022-11-29T07:49:52.432Z,101573.63
2022-11-29T07:52:46.837Z,101573.02
2022-11-29T07:55:41.225Z,101577.83
2022-11-29T07:58:35.765Z,101582.91
2022-11-29T08:01:30.166Z,101584.08
2022-11-29T08:04:24.632Z,101587.97
2022-11-29T08:07:19.258Z,101587.08
2022-11-29T08:10:16.341Z,101582.35
2022-11-29T08:13:10.749Z,101587.17
2022-11-29T08:16:05.451Z,101589.70
2022-11-29T08:18:59.898Z,101590.81
2022-11-29T08:21:54.354Z,101592.83
2022-11-29T08:24:48.937Z,101595.52
2022-11-29T08:27:43.355Z,101594.49
2022-11-29T08:30:37.824Z,101595.06
2022-11-29T08:33:32.334Z,101592.44
2022-11-29T08:36:26.766Z,101596.92
2022-11-29T08:39:21.243Z,101600.96
2022-11-29T08:42:15.656Z,101602.57
2022-11-29T08:45:12.508Z,101605.39
2022-11-29T08:48:07.976Z,101604.35
2022-11-29T08:51:02.353Z,101604.69
2022-11-29T08:53:56.802Z,101604.02
2022-11-29T08:57:37.914Z,101603.70
2022-11-29T09:00:06.580Z,101602.86
2022-11-29T09:03:14.844Z,101608.20
2022-11-29T09:06:12.922Z,101608.97
2022-11-29T09:09:07.681Z,101605.63
2022-11-29T09:12:02.062Z,101607.80
2022-11-29T09:14:56.866Z,101604.09
2022-11-29T09:17:51.575Z,101605.34
2022-11-29T09:20:47.682Z,101605.67
2022-11-29T09:23:41.204Z,101607.45
2022-11-29T09:26:37.064Z,101607.34
2022-11-29T09:29:31.566Z,101604.88
2022-11-29T09:32:26.390Z,101604.86
2022-11-29T09:35:21.228Z,101606.39
2022-11-29T09:38:16.848Z,101606.36
2022-11-29T09:41:20.810Z,101607.34
2022-11-29T09:44:21.026Z,101610.45
2022-11-29T09:47:29.351Z,101610.02
2022-11-29T09:50:32.645Z,101604.67
2022-11-29T09:53:43.625Z,101609.55
2022-11-29T09:56:41.236Z,101610.08
2022-11-29T09:59:37.404Z,101606.20
2022-11-29T10:02:32.155Z,101602.56
2022-11-29T10:05:30.135Z,101600.40
2022-11-29T10:08:28.533Z,101604.09
2022-11-29T10:11:27.904Z,101598.59
2022-11-29T10:14:24.611Z,101603.13
2022-11-29T10:17:29.296Z,101600.84
2022-11-29T10:20:25.738Z,101603.15
2022-11-29T10:23:25.452Z,101610.76
2022-11-29T10:26:20.879Z,101609.36
2022-11-29T10:29:17.520Z,101612.39
2022-11-29T10:32:15.892Z,101610.30
2022-11-29T10:35:17.552Z,101610.09
2022-11-29T10:38:30.217Z,101613.41
2022-11-29T10:41:27.064Z,101611.66
2022-11-29T10:44:21.639Z,101611.50
2022-11-29T10:47:16.428Z,101611.55
2022-11-29T10:50:15.604Z,101608.93
2022-11-29T10:53:12.045Z,101613.50
2022-11-29T10:56:08.866Z,101617.54
2022-11-29T10:59:05.499Z,101620.81
2022-11-29T11:02:00.630Z,101621.18
2022-11-29T11:04:55.005Z,101626.33
2022-11-29T11:07:49.579Z,101625.45
2022-11-29T11:10:46.985Z,101628.55
2022-11-29T11:13:44.309Z,101626.42
2022-11-29T11:16:38.784Z,101628.09
2022-11-29T11:19:34.759Z,101625.13
2022-11-29T11:22:29.853Z,101619.61
2022-11-29T11:25:32.370Z,101627.41
2022-11-29T11:28:30.015Z,101623.02
2022-11-29T11:31:34.182Z,101626.14
2022-11-29T11:34:34.323Z,101624.55
2022-11-29T11:37:30.594Z,101622.13
2022-11-29T11:40:30.663Z,101630.82
2022-11-29T11:43:25.526Z,101626.27
2022-11-29T11:46:20.268Z,101628.06
2022-11-29T11:49:27.475Z,101627.70
2022-11-29T11:52:25.273Z,101628.27
2022-11-29T11:55:34.045Z,101625.23
2022-11-29T11:58:28.796Z,101626.83
2022-11-29T12:01:30.793Z,101622.95
2022-11-29T12:04:28.094Z,101625.95
2022-11-29T12:07:59.366Z,101627.86
2022-11-29T12:10:44.190Z,101628.01
2022-11-29T12:13:40.574Z,101627.66
2022-11-29T12:16:39.262Z,101628.34
2022-11-29T12:19:35.994Z,101626.75
2022-11-29T12:22:32.336Z,101621.59
2022-11-29T12:25:30.668Z,101619.23
2022-11-29T12:28:28.474Z,101619.10
2022-11-29T12:31:36.716Z,101622.60
2022-11-29T12:34:47.249Z,101616.14
2022-11-29T12:37:44.438Z,101619.30
2022-11-29T12:40:42.057Z,101620.98
2022-11-29T12:43:45.514Z,101622.91
2022-11-29T12:46:40.174Z,101621.37
2022-11-29T12:49:40.996Z,101620.40
2022-11-29T12:52:44.463Z,101624.63
2022-11-29T12:55:46.214Z,101624.14
2022-11-29T12:58:48.013Z,101627.65
2022-11-29T13:01:59.611Z,101629.09
2022-11-29T13:04:59.975Z,101627.42
2022-11-29T13:08:08.198Z,101623.44
2022-11-29T13:11:10.035Z,101627.90
2022-11-29T13:14:40.866Z,101625.32
2022-11-29T13:17:31.714Z,101624.91
2022-11-29T13:20:34.024Z,101624.27
2022-11-29T13:23:45.845Z,101625.11
2022-11-29T13:26:46.581Z,101633.51
2022-11-29T13:29:41.371Z,101631.27
2022-11-29T13:32:41.621Z,101631.08
2022-11-29T13:35:40.529Z,101634.21
2022-11-29T13:38:38.294Z,101638.02
2022-11-29T13:41:36.093Z,101638.70
2022-11-29T13:44:34.514Z,101644.36
2022-11-29T13:47:29.199Z,101644.30
2022-11-29T13:50:44.575Z,101644.83
2022-11-29T13:53:49.060Z,101646.55
2022-11-29T13:56:46.613Z,101648.86
2022-11-29T13:59:47.383Z,101650.75
2022-11-29T14:02:42.273Z,101646.50
2022-11-29T14:05:38.329Z,101648.98
2022-11-29T14:08:55.131Z,101654.80
2022-11-29T14:11:50.251Z,101654.60
2022-11-29T14:14:52.099Z,101655.86
2022-11-29T14:18:01.536Z,101651.61
2022-11-29T14:21:03.095Z,101650.18
2022-11-29T14:23:57.500Z,101656.40
2022-11-29T14:26:52.238Z,101654.94
2022-11-29T14:29:59.821Z,101651.25
2022-11-29T14:32:57.861Z,101657.95
2022-11-29T14:36:01.089Z,101660.59
2022-11-29T14:39:04.422Z,101667.86
2022-11-29T14:42:14.785Z,101666.44
2022-11-29T14:45:28.071Z,101667.20
2022-11-29T14:48:32.021Z,101670.34
2022-11-29T14:51:28.040Z,101671.59
2022-11-29T14:54:22.731Z,101673.21
2022-11-29T14:58:06.337Z,101674.13
2022-11-29T15:01:17.381Z,101678.02
2022-11-29T15:04:13.054Z,101680.59
2022-11-29T15:07:07.669Z,101677.73
2022-11-29T15:10:04.935Z,101678.27
2022-11-29T15:13:00.290Z,101676.37
2022-11-29T15:16:21.510Z,101683.95
2022-11-29T15:19:59.164Z,101684.88
2022-11-29T15:22:54.738Z,101683.05
2022-11-29T15:25:53.257Z,101682.94
2022-11-29T15:28:47.840Z,101684.38
2022-11-29T15:31:43.209Z,101683.30
2022-11-29T15:34:41.193Z,101682.22
2022-11-29T15:37:45.792Z,101682.27
2022-11-29T15:40:42.503Z,101683.33
2022-11-29T15:43:38.649Z,101685.30
2022-11-29T15:46:32.268Z,101694.03
2022-11-29T15:49:30.757Z,101694.56
2022-11-29T15:52:29.643Z,101700.19
2022-11-29T15:55:24.143Z,101703.77
2022-11-29T15:58:19.110Z,101709.78
2022-11-29T16:01:14.447Z,101712.66
2022-11-29T16:04:11.615Z,101714.63
2022-11-29T16:07:06.491Z,101712.34
2022-11-29T16:10:03.106Z,101713.94
2022-11-29T16:12:59.653Z,101715.20
2022-11-29T16:16:12.376Z,101719.98
2022-11-29T16:19:35.209Z,101719.29
2022-11-29T16:22:31.033Z,101715.77
2022-11-29T16:25:25.490Z,101716.02
2022-11-29T16:28:19.935Z,101718.62
2022-11-29T16:31:18.104Z,101719.33
2022-11-29T16:34:20.092Z,101722.20
2022-11-29T16:37:20.308Z,101721.81
2022-11-29T16:40:24.921Z,101724.34
2022-11-29T16:43:43.748Z,101723.60
2022-11-29T16:46:40.206Z,101728.79
2022-11-29T16:49:40.694Z,101726.07
2022-11-29T16:52:36.055Z,101728.62
2022-11-29T16:55:30.561Z,101721.31
2022-11-29T16:58:25.459Z,101720.91
2022-11-29T17:01:26.394Z,101719.56
2022-11-29T17:04:23.734Z,101714.60
2022-11-29T17:07:23.659Z,101714.06
2022-11-29T17:10:23.031Z,101716.14
2022-11-29T17:13:19.292Z,101716.11
2022-11-29T17:16:14.704Z,101716.08
2022-11-29T17:19:10.542Z,101716.08
2022-11-29T17:22:04.962Z,101722.08
2022-11-29T17:24:59.351Z,101721.84
2022-11-29T17:27:53.862Z,101720.25
2022-11-29T17:30:48.309Z,101720.04
2022-11-29T17:33:42.783Z,101723.36
2022-11-29T17:36:37.594Z,101729.95
2022-11-29T17:39:32.405Z,101731.52
2022-11-29T17:42:27.216Z,101737.99
2022-11-29T17:45:21.937Z,101733.27
2022-11-29T17:48:16.408Z,101739.98
2022-11-29T17:51:36.031Z,101739.77
2022-11-29T17:54:25.993Z,101741.64
2022-11-29T17:57:20.909Z,101740.34
2022-11-29T18:00:20.537Z,101748.19
2022-11-29T18:04:00.676Z,101746.30
2022-11-29T18:06:55.783Z,101750.50
2022-11-29T18:09:51.075Z,101747.61
2022-11-29T18:12:45.848Z,101747.40
2022-11-29T18:15:40.620Z,101753.29
2022-11-29T18:18:35.742Z,101755.98
2022-11-29T18:21:30.528Z,101753.02
2022-11-29T18:24:25.257Z,101753.48
2022-11-29T18:27:20.110Z,101752.13
2022-11-29T18:30:17.538Z,101751.45
2022-11-29T18:33:12.324Z,101752.79
2022-11-29T18:36:11.135Z,101751.08
2022-11-29T18:39:08.793Z,101748.00
2022-11-29T18:42:03.704Z,101750.13
2022-11-29T18:44:58.975Z,101748.67
2022-11-29T18:47:55.229Z,101752.89
2022-11-29T18:50:50.335Z,101751.13
2022-11-29T18:53:45.501Z,101745.95
2022-11-29T18:56:40.647Z,101744.18
2022-11-29T18:59:35.798Z,101749.02
2022-11-29T19:02:30.831Z,101758.76
2022-11-29T19:05:25.955Z,101757.70
2022-11-29T19:08:20.827Z,101761.33
2022-11-29T19:11:23.495Z,101760.17
2022-11-29T19:14:18.989Z,101762.86
2022-11-29T19:17:13.696Z,101772.54
2022-11-29T19:20:17.036Z,101776.41
2022-11-29T19:23:19.217Z,101767.51
2022-11-29T19:26:18.965Z,101769.80
2022-11-29T19:29:14.077Z,101775.06
2022-11-29T19:32:10.163Z,101779.25
2022-11-29T19:35:11.030Z,101779.52
2022-11-29T19:38:13.034Z,101780.21
2022-11-29T19:41:13.951Z,101784.54
2022-11-29T19:44:10.136Z,101786.98
2022-11-29T19:47:04.816Z,101783.92
2022-11-29T19:50:02.663Z,101789.64
2022-11-29T19:52:58.158Z,101791.54
2022-11-29T19:55:53.014Z,101793.87
2022-11-29T19:58:47.996Z,101802.58
2022-11-29T20:01:43.336Z,101806.52
2022-11-29T20:04:38.308Z,101809.69
2022-11-29T20:07:33.404Z,101809.88
2022-11-29T20:10:29.379Z,101811.61
2022-11-29T20:13:24.585Z,101804.11
2022-11-29T20:16:20.296Z,101807.23
2022-11-29T20:19:18.307Z,101807.77
2022-11-29T20:22:13.070Z,101810.04
2022-11-29T20:25:08.925Z,101809.45
2022-11-29T20:28:04.409Z,101807.65
2022-11-29T20:30:59.218Z,101815.56
2022-11-29T20:33:57.410Z,101815.94
2022-11-29T20:37:07.622Z,101816.08
2022-11-29T20:40:14.100Z,101825.98
2022-11-29T20:43:11.338Z,101829.24
2022-11-29T20:46:07.296Z,101829.61
2022-11-29T20:49:06.793Z,101826.72
2022-11-29T20:52:06.268Z,101833.41
2022-11-29T20:55:01.042Z,101834.63
2022-11-29T20:57:55.985Z,101839.98
2022-11-29T21:00:50.671Z,101834.90
2022-11-29T21:03:45.646Z,101829.05
2022-11-29T21:06:42.931Z,101830.54
2022-11-29T21:09:37.711Z,101833.52
2022-11-29T21:12:34.482Z,101838.92
2022-11-29T21:15:28.965Z,101838.31
2022-11-29T21:18:28.058Z,101840.30
2022-11-29T21:21:27.845Z,101842.88
2022-11-29T21:24:28.696Z,101843.64
2022-11-29T21:27:28.536Z,101843.43
2022-11-29T21:30:25.166Z,101841.36
2022-11-29T21:33:21.196Z,101843.66
2022-11-29T21:36:16.132Z,101843.76
2022-11-29T21:39:12.369Z,101846.05
2022-11-29T21:42:07.309Z,101850.14
2022-11-29T21:45:02.127Z,101844.58
2022-11-29T21:47:57.058Z,101847.42
2022-11-29T21:50:56.518Z,101847.32
2022-11-29T21:53:51.584Z,101844.37
2022-11-29T21:56:46.482Z,101844.45
2022-11-29T21:59:41.241Z,101846.59
2022-11-29T22:02:36.132Z,101847.25
2022-11-29T22:05:30.825Z,101853.59
2022-11-29T22:08:25.587Z,101852.59
2022-11-29T22:11:31.100Z,101855.98
2022-11-29T22:14:26.257Z,101862.59
2022-11-29T22:17:20.943Z,101859.23
2022-11-29T22:20:17.409Z,101853.50
2022-11-29T22:23:12.173Z,101852.99
2022-11-29T22:26:10.770Z,101855.19
2022-11-29T22:29:05.494Z,101849.58
2022-11-29T22:32:01.372Z,101851.52
2022-11-29T22:34:56.090Z,101853.05
2022-11-29T22:37:51.362Z,101850.30
2022-11-29T22:40:46.007Z,101853.71
2022-11-29T22:43:41.111Z,101855.81
2022-11-29T22:46:36.254Z,101854.04
2022-11-29T22:49:33.325Z,101856.90
2022-11-29T22:52:28.093Z,101859.96
2022-11-29T22:55:22.729Z,101854.93
2022-11-29T22:58:17.411Z,101856.11
2022-11-29T23:01:14.129Z,101857.34
2022-11-29T23:04:10.478Z,101854.02
2022-11-29T23:07:05.544Z,101853.41
2022-11-29T23:10:00.381Z,101846.98
2022-11-29T23:12:55.085Z,101852.79
2022-11-29T23:15:49.728Z,101853.43
2022-11-29T23:18:45.818Z,101851.45
2022-11-29T23:21:41.406Z,101851.45
2022-11-29T23:24:36.177Z,101850.67
2022-11-29T23:27:30.982Z,101854.44
2022-11-29T23:30:25.768Z,101858.60
2022-11-29T23:33:20.490Z,101861.20
2022-11-29T23:36:15.808Z,101855.63
2022-11-29T23:39:10.710Z,101854.86
2022-11-29T23:42:05.643Z,101851.47
2022-11-29T23:45:00.380Z,101844.18
2022-11-29T23:47:55.113Z,101845.33
2022-11-29T23:50:49.928Z,101843.14
2022-11-29T23:53:44.854Z,101847.39
2022-11-29T23:56:39.753Z,101850.86
2022-11-29T23:59:34.786Z,101853.64
